sensor_id;sensor_type;location;lat;lon;timestamp;P1;durP1;ratioP1;P2;durP2;ratioP2
42846;SDS011;28495;49.916;14.536;2022-12-16T00:03:35;64.35;;;27.98;;
42846;SDS011;28495;49.916;14.536;2022-12-16T00:08:57;67.20;;;28.50;;
42846;SDS011;28495;49.916;14.536;2022-12-16T00:14:19;51.03;;;23.85;;
42846;SDS011;28495;49.916;14.536;2022-12-16T00:19:40;60.22;;;24.13;;
42846;SDS011;28495;49.916;14.536;2022-12-16T00:25:01;61.33;;;26.48;;
42846;SDS011;28495;49.916;14.536;2022-12-16T00:30:22;68.55;;;26.08;;
42846;SDS011;28495;49.916;14.536;2022-12-16T00:35:43;60.17;;;26.67;;
42846;SDS011;28495;49.916;14.536;2022-12-16T00:41:05;47.15;;;20.00;;
42846;SDS011;28495;49.916;14.536;2022-12-16T00:46:27;43.70;;;21.35;;
42846;SDS011;28495;49.916;14.536;2022-12-16T00:51:48;59.53;;;26.70;;
42846;SDS011;28495;49.916;14.536;2022-12-16T00:57:09;49.08;;;21.45;;
42846;SDS011;28495;49.916;14.536;2022-12-16T01:02:30;61.08;;;24.88;;
42846;SDS011;28495;49.916;14.536;2022-12-16T01:07:53;60.28;;;24.88;;
42846;SDS011;28495;49.916;14.536;2022-12-16T01:13:14;60.28;;;26.10;;
42846;SDS011;28495;49.916;14.536;2022-12-16T01:18:35;57.60;;;25.20;;
42846;SDS011;28495;49.916;14.536;2022-12-16T01:23:56;59.97;;;26.23;;
42846;SDS011;28495;49.916;14.536;2022-12-16T01:29:17;53.53;;;22.65;;
42846;SDS011;28495;49.916;14.536;2022-12-16T01:34:38;56.22;;;22.05;;
42846;SDS011;28495;49.916;14.536;2022-12-16T01:40:00;55.95;;;22.38;;
42846;SDS011;28495;49.916;14.536;2022-12-16T01:45:28;55.70;;;24.55;;
42846;SDS011;28495;49.916;14.536;2022-12-16T01:50:54;63.25;;;26.58;;
42846;SDS011;28495;49.916;14.536;2022-12-16T01:56:22;55.53;;;24.10;;
42846;SDS011;28495;49.916;14.536;2022-12-16T02:01:46;45.05;;;20.50;;
42846;SDS011;28495;49.916;14.536;2022-12-16T02:07:08;48.28;;;22.77;;
42846;SDS011;28495;49.916;14.536;2022-12-16T02:12:41;49.42;;;22.58;;
42846;SDS011;28495;49.916;14.536;2022-12-16T02:18:11;52.17;;;21.90;;
42846;SDS011;28495;49.916;14.536;2022-12-16T02:35:56;49.85;;;20.23;;
42846;SDS011;28495;49.916;14.536;2022-12-16T02:41:42;50.17;;;24.23;;
42846;SDS011;28495;49.916;14.536;2022-12-16T02:47:14;47.10;;;18.38;;
42846;SDS011;28495;49.916;14.536;2022-12-16T02:52:35;55.97;;;25.38;;
42846;SDS011;28495;49.916;14.536;2022-12-16T02:58:01;55.13;;;24.00;;
42846;SDS011;28495;49.916;14.536;2022-12-16T03:03:32;58.08;;;24.85;;
42846;SDS011;28495;49.916;14.536;2022-12-16T03:09:00;44.22;;;22.98;;
42846;SDS011;28495;49.916;14.536;2022-12-16T03:14:28;43.45;;;18.92;;
42846;SDS011;28495;49.916;14.536;2022-12-16T03:19:55;58.38;;;24.20;;
42846;SDS011;28495;49.916;14.536;2022-12-16T03:25:32;53.50;;;24.50;;
42846;SDS011;28495;49.916;14.536;2022-12-16T03:31:05;54.55;;;23.58;;
42846;SDS011;28495;49.916;14.536;2022-12-16T03:36:33;48.28;;;23.65;;
42846;SDS011;28495;49.916;14.536;2022-12-16T03:41:57;65.03;;;26.10;;
42846;SDS011;28495;49.916;14.536;2022-12-16T03:47:19;49.53;;;21.25;;
42846;SDS011;28495;49.916;14.536;2022-12-16T03:52:43;52.30;;;25.17;;
42846;SDS011;28495;49.916;14.536;2022-12-16T03:58:04;47.53;;;22.58;;
42846;SDS011;28495;49.916;14.536;2022-12-16T04:03:25;53.58;;;23.08;;
42846;SDS011;28495;49.916;14.536;2022-12-16T04:08:46;47.10;;;22.90;;
42846;SDS011;28495;49.916;14.536;2022-12-16T04:14:07;47.40;;;20.25;;
42846;SDS011;28495;49.916;14.536;2022-12-16T04:19:47;50.07;;;23.63;;
42846;SDS011;28495;49.916;14.536;2022-12-16T04:25:31;41.42;;;19.17;;
42846;SDS011;28495;49.916;14.536;2022-12-16T04:30:55;46.00;;;20.75;;
42846;SDS011;28495;49.916;14.536;2022-12-16T04:36:17;43.50;;;19.88;;
42846;SDS011;28495;49.916;14.536;2022-12-16T04:41:56;47.45;;;20.80;;
42846;SDS011;28495;49.916;14.536;2022-12-16T04:47:35;38.30;;;17.50;;
42846;SDS011;28495;49.916;14.536;2022-12-16T04:53:23;41.42;;;19.45;;
42846;SDS011;28495;49.916;14.536;2022-12-16T04:59:03;48.08;;;20.42;;
42846;SDS011;28495;49.916;14.536;2022-12-16T05:05:02;49.55;;;20.52;;
42846;SDS011;28495;49.916;14.536;2022-12-16T05:10:42;41.93;;;20.20;;
42846;SDS011;28495;49.916;14.536;2022-12-16T05:16:21;38.65;;;18.95;;
42846;SDS011;28495;49.916;14.536;2022-12-16T05:22:00;42.58;;;20.23;;
42846;SDS011;28495;49.916;14.536;2022-12-16T05:27:39;47.55;;;21.05;;
42846;SDS011;28495;49.916;14.536;2022-12-16T05:33:19;42.43;;;19.00;;
42846;SDS011;28495;49.916;14.536;2022-12-16T05:38:58;40.65;;;18.08;;
42846;SDS011;28495;49.916;14.536;2022-12-16T05:44:37;52.80;;;23.25;;
42846;SDS011;28495;49.916;14.536;2022-12-16T05:50:16;44.78;;;20.45;;
42846;SDS011;28495;49.916;14.536;2022-12-16T05:56:02;38.22;;;17.52;;
42846;SDS011;28495;49.916;14.536;2022-12-16T06:01:41;39.60;;;19.73;;
42846;SDS011;28495;49.916;14.536;2022-12-16T06:07:21;43.80;;;18.40;;
42846;SDS011;28495;49.916;14.536;2022-12-16T06:13:00;28.15;;;13.60;;
42846;SDS011;28495;49.916;14.536;2022-12-16T06:18:40;39.20;;;17.60;;
42846;SDS011;28495;49.916;14.536;2022-12-16T06:24:19;36.22;;;16.40;;
42846;SDS011;28495;49.916;14.536;2022-12-16T06:29:58;36.70;;;17.38;;
42846;SDS011;28495;49.916;14.536;2022-12-16T06:35:37;40.53;;;17.35;;
42846;SDS011;28495;49.916;14.536;2022-12-16T06:41:17;30.20;;;14.00;;
42846;SDS011;28495;49.916;14.536;2022-12-16T06:46:56;33.60;;;15.57;;
42846;SDS011;28495;49.916;14.536;2022-12-16T06:52:35;48.40;;;20.85;;
42846;SDS011;28495;49.916;14.536;2022-12-16T06:58:15;40.65;;;18.92;;
42846;SDS011;28495;49.916;14.536;2022-12-16T07:03:54;41.50;;;17.73;;
42846;SDS011;28495;49.916;14.536;2022-12-16T07:09:33;32.33;;;15.75;;
42846;SDS011;28495;49.916;14.536;2022-12-16T07:15:13;35.97;;;16.45;;
42846;SDS011;28495;49.916;14.536;2022-12-16T07:20:52;29.53;;;13.07;;
42846;SDS011;28495;49.916;14.536;2022-12-16T07:26:31;33.33;;;15.57;;
42846;SDS011;28495;49.916;14.536;2022-12-16T07:32:11;38.30;;;16.80;;
42846;SDS011;28495;49.916;14.536;2022-12-16T07:37:50;33.20;;;15.50;;
42846;SDS011;28495;49.916;14.536;2022-12-16T07:43:29;30.17;;;14.73;;
42846;SDS011;28495;49.916;14.536;2022-12-16T07:49:09;30.25;;;14.70;;
42846;SDS011;28495;49.916;14.536;2022-12-16T07:54:48;34.13;;;15.63;;
42846;SDS011;28495;49.916;14.536;2022-12-16T08:00:27;36.47;;;16.97;;
42846;SDS011;28495;49.916;14.536;2022-12-16T08:06:07;24.15;;;11.80;;
42846;SDS011;28495;49.916;14.536;2022-12-16T08:11:46;35.67;;;15.32;;
42846;SDS011;28495;49.916;14.536;2022-12-16T08:17:25;36.47;;;16.97;;
42846;SDS011;28495;49.916;14.536;2022-12-16T08:23:05;34.03;;;16.27;;
42846;SDS011;28495;49.916;14.536;2022-12-16T08:28:44;27.92;;;12.88;;
42846;SDS011;28495;49.916;14.536;2022-12-16T08:34:43;35.10;;;16.30;;
42846;SDS011;28495;49.916;14.536;2022-12-16T08:40:22;27.27;;;12.18;;
42846;SDS011;28495;49.916;14.536;2022-12-16T08:46:02;36.00;;;16.20;;
42846;SDS011;28495;49.916;14.536;2022-12-16T08:51:41;37.67;;;16.93;;
42846;SDS011;28495;49.916;14.536;2022-12-16T08:57:20;37.55;;;19.55;;
42846;SDS011;28495;49.916;14.536;2022-12-16T09:03:00;41.80;;;19.48;;
42846;SDS011;28495;49.916;14.536;2022-12-16T09:08:39;34.97;;;15.75;;
42846;SDS011;28495;49.916;14.536;2022-12-16T09:14:19;36.78;;;16.48;;
42846;SDS011;28495;49.916;14.536;2022-12-16T09:19:58;51.67;;;21.37;;
42846;SDS011;28495;49.916;14.536;2022-12-16T09:25:37;35.15;;;16.17;;
42846;SDS011;28495;49.916;14.536;2022-12-16T09:31:17;26.70;;;13.73;;
42846;SDS011;28495;49.916;14.536;2022-12-16T09:36:57;37.85;;;17.23;;
42846;SDS011;28495;49.916;14.536;2022-12-16T09:42:46;37.10;;;17.73;;
42846;SDS011;28495;49.916;14.536;2022-12-16T09:54:16;46.97;;;19.08;;
42846;SDS011;28495;49.916;14.536;2022-12-16T09:59:59;36.20;;;15.98;;
42846;SDS011;28495;49.916;14.536;2022-12-16T10:06:08;33.08;;;15.15;;
42846;SDS011;28495;49.916;14.536;2022-12-16T10:12:09;35.58;;;16.50;;
42846;SDS011;28495;49.916;14.536;2022-12-16T10:17:55;35.42;;;16.48;;
42846;SDS011;28495;49.916;14.536;2022-12-16T10:29:24;31.02;;;14.57;;
42846;SDS011;28495;49.916;14.536;2022-12-16T10:35:27;44.67;;;17.30;;
42846;SDS011;28495;49.916;14.536;2022-12-16T10:41:36;38.17;;;16.75;;
42846;SDS011;28495;49.916;14.536;2022-12-16T10:47:18;38.40;;;17.70;;
42846;SDS011;28495;49.916;14.536;2022-12-16T10:52:59;39.20;;;18.80;;
42846;SDS011;28495;49.916;14.536;2022-12-16T11:04:35;45.33;;;19.08;;
42846;SDS011;28495;49.916;14.536;2022-12-16T11:11:03;35.05;;;15.77;;
42846;SDS011;28495;49.916;14.536;2022-12-16T11:22:05;44.33;;;18.67;;
42846;SDS011;28495;49.916;14.536;2022-12-16T11:28:05;31.67;;;16.08;;
42846;SDS011;28495;49.916;14.536;2022-12-16T11:33:51;39.20;;;16.80;;
42846;SDS011;28495;49.916;14.536;2022-12-16T11:39:33;34.72;;;17.02;;
42846;SDS011;28495;49.916;14.536;2022-12-16T11:45:16;50.92;;;24.08;;
42846;SDS011;28495;49.916;14.536;2022-12-16T11:50:58;64.72;;;30.88;;
42846;SDS011;28495;49.916;14.536;2022-12-16T11:56:41;55.55;;;23.65;;
42846;SDS011;28495;49.916;14.536;2022-12-16T12:02:29;66.75;;;28.25;;
42846;SDS011;28495;49.916;14.536;2022-12-16T12:08:38;54.58;;;26.75;;
42846;SDS011;28495;49.916;14.536;2022-12-16T12:14:32;57.33;;;24.15;;
42846;SDS011;28495;49.916;14.536;2022-12-16T12:26:24;53.08;;;23.63;;
42846;SDS011;28495;49.916;14.536;2022-12-16T12:32:14;50.08;;;22.23;;
42846;SDS011;28495;49.916;14.536;2022-12-16T12:38:23;40.30;;;18.48;;
42846;SDS011;28495;49.916;14.536;2022-12-16T12:50:36;46.42;;;22.63;;
42846;SDS011;28495;49.916;14.536;2022-12-16T13:02:24;40.78;;;19.45;;
42846;SDS011;28495;49.916;14.536;2022-12-16T13:26:11;33.78;;;17.85;;
42846;SDS011;28495;49.916;14.536;2022-12-16T13:32:03;40.85;;;20.80;;
42846;SDS011;28495;49.916;14.536;2022-12-16T13:55:17;55.80;;;25.90;;
42846;SDS011;28495;49.916;14.536;2022-12-16T14:01:03;55.50;;;25.85;;
42846;SDS011;28495;49.916;14.536;2022-12-16T14:06:48;47.80;;;22.63;;
42846;SDS011;28495;49.916;14.536;2022-12-16T14:12:42;52.42;;;24.30;;
42846;SDS011;28495;49.916;14.536;2022-12-16T14:24:41;52.42;;;26.05;;
42846;SDS011;28495;49.916;14.536;2022-12-16T14:30:22;59.20;;;25.45;;
42846;SDS011;28495;49.916;14.536;2022-12-16T14:36:15;52.95;;;22.38;;
42846;SDS011;28495;49.916;14.536;2022-12-16T14:41:56;52.47;;;22.30;;
42846;SDS011;28495;49.916;14.536;2022-12-16T14:47:36;55.50;;;23.40;;
42846;SDS011;28495;49.916;14.536;2022-12-16T14:53:22;40.50;;;18.75;;
42846;SDS011;28495;49.916;14.536;2022-12-16T14:59:13;50.60;;;21.48;;
42846;SDS011;28495;49.916;14.536;2022-12-16T15:04:57;52.08;;;24.95;;
42846;SDS011;28495;49.916;14.536;2022-12-16T15:10:37;53.55;;;26.15;;
42846;SDS011;28495;49.916;14.536;2022-12-16T15:16:17;54.78;;;24.52;;
42846;SDS011;28495;49.916;14.536;2022-12-16T15:22:12;57.72;;;26.25;;
42846;SDS011;28495;49.916;14.536;2022-12-16T15:27:55;57.72;;;26.48;;
42846;SDS011;28495;49.916;14.536;2022-12-16T15:33:38;51.22;;;24.15;;
42846;SDS011;28495;49.916;14.536;2022-12-16T15:44:56;54.50;;;25.08;;
42846;SDS011;28495;49.916;14.536;2022-12-16T15:50:35;52.03;;;24.17;;
42846;SDS011;28495;49.916;14.536;2022-12-16T15:56:16;46.97;;;21.95;;
42846;SDS011;28495;49.916;14.536;2022-12-16T16:02:05;44.38;;;21.80;;
42846;SDS011;28495;49.916;14.536;2022-12-16T16:07:52;34.47;;;16.58;;
42846;SDS011;28495;49.916;14.536;2022-12-16T16:13:32;39.67;;;17.02;;
42846;SDS011;28495;49.916;14.536;2022-12-16T16:19:11;29.95;;;15.45;;
42846;SDS011;28495;49.916;14.536;2022-12-16T16:24:57;26.67;;;13.40;;
42846;SDS011;28495;49.916;14.536;2022-12-16T16:30:36;31.55;;;15.85;;
42846;SDS011;28495;49.916;14.536;2022-12-16T16:36:16;27.47;;;14.17;;
42846;SDS011;28495;49.916;14.536;2022-12-16T16:41:55;33.90;;;16.77;;
42846;SDS011;28495;49.916;14.536;2022-12-16T16:47:35;34.47;;;16.73;;
42846;SDS011;28495;49.916;14.536;2022-12-16T16:53:15;34.40;;;17.08;;
42846;SDS011;28495;49.916;14.536;2022-12-16T16:58:55;41.45;;;19.35;;
42846;SDS011;28495;49.916;14.536;2022-12-16T17:04:34;37.55;;;17.75;;
42846;SDS011;28495;49.916;14.536;2022-12-16T17:10:13;42.95;;;19.13;;
42846;SDS011;28495;49.916;14.536;2022-12-16T17:15:53;42.10;;;18.65;;
42846;SDS011;28495;49.916;14.536;2022-12-16T17:21:32;40.53;;;17.40;;
42846;SDS011;28495;49.916;14.536;2022-12-16T17:27:16;34.43;;;17.40;;
42846;SDS011;28495;49.916;14.536;2022-12-16T17:32:57;38.00;;;16.58;;
42846;SDS011;28495;49.916;14.536;2022-12-16T17:38:40;47.70;;;19.03;;
42846;SDS011;28495;49.916;14.536;2022-12-16T17:44:21;40.90;;;17.40;;
42846;SDS011;28495;49.916;14.536;2022-12-16T17:50:01;39.47;;;18.42;;
42846;SDS011;28495;49.916;14.536;2022-12-16T17:55:42;36.58;;;18.45;;
42846;SDS011;28495;49.916;14.536;2022-12-16T18:01:23;34.13;;;18.63;;
42846;SDS011;28495;49.916;14.536;2022-12-16T18:12:42;35.50;;;17.95;;
42846;SDS011;28495;49.916;14.536;2022-12-16T18:18:21;36.33;;;18.42;;
42846;SDS011;28495;49.916;14.536;2022-12-16T18:24:06;42.65;;;18.65;;
42846;SDS011;28495;49.916;14.536;2022-12-16T18:29:46;39.67;;;18.45;;
42846;SDS011;28495;49.916;14.536;2022-12-16T18:35:25;41.17;;;20.13;;
42846;SDS011;28495;49.916;14.536;2022-12-16T18:41:05;34.92;;;16.85;;
42846;SDS011;28495;49.916;14.536;2022-12-16T18:46:51;38.67;;;18.48;;
42846;SDS011;28495;49.916;14.536;2022-12-16T18:52:31;35.95;;;16.65;;
42846;SDS011;28495;49.916;14.536;2022-12-16T18:58:11;39.13;;;18.52;;
42846;SDS011;28495;49.916;14.536;2022-12-16T19:04:11;31.10;;;16.85;;
42846;SDS011;28495;49.916;14.536;2022-12-16T19:09:50;34.70;;;17.98;;
42846;SDS011;28495;49.916;14.536;2022-12-16T19:15:29;33.83;;;15.90;;
42846;SDS011;28495;49.916;14.536;2022-12-16T19:21:09;38.93;;;17.87;;
42846;SDS011;28495;49.916;14.536;2022-12-16T19:26:56;33.92;;;17.42;;
42846;SDS011;28495;49.916;14.536;2022-12-16T19:32:36;36.80;;;17.57;;
42846;SDS011;28495;49.916;14.536;2022-12-16T19:38:15;32.85;;;16.63;;
42846;SDS011;28495;49.916;14.536;2022-12-16T19:43:55;43.05;;;20.58;;
42846;SDS011;28495;49.916;14.536;2022-12-16T19:49:45;30.83;;;15.57;;
42846;SDS011;28495;49.916;14.536;2022-12-16T19:55:25;42.47;;;20.42;;
42846;SDS011;28495;49.916;14.536;2022-12-16T20:01:04;42.33;;;21.75;;
42846;SDS011;28495;49.916;14.536;2022-12-16T20:06:47;33.63;;;16.70;;
42846;SDS011;28495;49.916;14.536;2022-12-16T20:12:30;43.50;;;22.00;;
42846;SDS011;28495;49.916;14.536;2022-12-16T20:18:16;48.38;;;20.65;;
42846;SDS011;28495;49.916;14.536;2022-12-16T20:23:55;42.30;;;20.73;;
42846;SDS011;28495;49.916;14.536;2022-12-16T20:35:15;40.10;;;18.80;;
42846;SDS011;28495;49.916;14.536;2022-12-16T20:40:55;36.33;;;18.98;;
42846;SDS011;28495;49.916;14.536;2022-12-16T20:46:38;42.22;;;20.13;;
42846;SDS011;28495;49.916;14.536;2022-12-16T20:52:18;45.22;;;22.50;;
42846;SDS011;28495;49.916;14.536;2022-12-16T20:57:57;48.10;;;20.60;;
42846;SDS011;28495;49.916;14.536;2022-12-16T21:03:37;47.05;;;21.30;;
42846;SDS011;28495;49.916;14.536;2022-12-16T21:09:16;44.25;;;21.60;;
42846;SDS011;28495;49.916;14.536;2022-12-16T21:14:56;44.28;;;22.02;;
42846;SDS011;28495;49.916;14.536;2022-12-16T21:20:36;48.60;;;23.67;;
42846;SDS011;28495;49.916;14.536;2022-12-16T21:26:15;50.43;;;23.67;;
42846;SDS011;28495;49.916;14.536;2022-12-16T21:31:54;43.97;;;21.73;;
42846;SDS011;28495;49.916;14.536;2022-12-16T21:37:34;46.78;;;22.13;;
42846;SDS011;28495;49.916;14.536;2022-12-16T21:43:16;56.58;;;24.85;;
42846;SDS011;28495;49.916;14.536;2022-12-16T21:54:35;46.70;;;23.63;;
42846;SDS011;28495;49.916;14.536;2022-12-16T22:00:15;39.13;;;18.93;;
42846;SDS011;28495;49.916;14.536;2022-12-16T22:05:57;49.00;;;24.05;;
42846;SDS011;28495;49.916;14.536;2022-12-16T22:11:37;45.97;;;21.13;;
42846;SDS011;28495;49.916;14.536;2022-12-16T22:17:16;56.60;;;24.48;;
42846;SDS011;28495;49.916;14.536;2022-12-16T22:22:56;43.17;;;20.45;;
42846;SDS011;28495;49.916;14.536;2022-12-16T22:28:35;59.30;;;27.55;;
42846;SDS011;28495;49.916;14.536;2022-12-16T22:34:26;49.80;;;24.98;;
42846;SDS011;28495;49.916;14.536;2022-12-16T22:40:05;50.50;;;24.77;;
42846;SDS011;28495;49.916;14.536;2022-12-16T22:45:46;38.45;;;19.63;;
42846;SDS011;28495;49.916;14.536;2022-12-16T22:51:25;54.00;;;24.67;;
42846;SDS011;28495;49.916;14.536;2022-12-16T22:57:04;41.22;;;20.77;;
42846;SDS011;28495;49.916;14.536;2022-12-16T23:02:44;57.53;;;24.37;;
42846;SDS011;28495;49.916;14.536;2022-12-16T23:08:23;53.25;;;25.95;;
42846;SDS011;28495;49.916;14.536;2022-12-16T23:14:02;44.00;;;22.05;;
42846;SDS011;28495;49.916;14.536;2022-12-16T23:19:42;55.03;;;23.27;;
42846;SDS011;28495;49.916;14.536;2022-12-16T23:25:21;50.25;;;22.40;;
42846;SDS011;28495;49.916;14.536;2022-12-16T23:31:00;48.55;;;22.42;;
42846;SDS011;28495;49.916;14.536;2022-12-16T23:36:39;50.20;;;23.15;;
42846;SDS011;28495;49.916;14.536;2022-12-16T23:42:19;48.37;;;23.27;;
42846;SDS011;28495;49.916;14.536;2022-12-16T23:48:05;45.25;;;20.58;;
42846;SDS011;28495;49.916;14.536;2022-12-16T23:53:47;46.13;;;21.63;;
42846;SDS011;28495;49.916;14.536;2022-12-16T23:59:26;47.72;;;22.38;;
